sensor_id;sensor_type;location;lat;lon;timestamp;P1;durP1;ratioP1;P2;durP2;ratioP2
62933;SDS011;49038;47.600;19.242;2024-01-16T00:01:47;2.08;;;1.92;;
62933;SDS011;49038;47.600;19.242;2024-01-16T00:04:50;5.53;;;1.95;;
62933;SDS011;49038;47.600;19.242;2024-01-16T00:07:52;1.60;;;1.50;;
62933;SDS011;49038;47.600;19.242;2024-01-16T00:10:54;1.55;;;1.45;;
62933;SDS011;49038;47.600;19.242;2024-01-16T00:13:56;2.00;;;1.83;;
62933;SDS011;49038;47.600;19.242;2024-01-16T00:16:59;1.60;;;1.50;;
62933;SDS011;49038;47.600;19.242;2024-01-16T00:20:01;1.58;;;1.48;;
62933;SDS011;49038;47.600;19.242;2024-01-16T00:23:03;1.80;;;1.58;;
62933;SDS011;49038;47.600;19.242;2024-01-16T00:26:06;1.70;;;1.60;;
62933;SDS011;49038;47.600;19.242;2024-01-16T00:29:08;2.22;;;1.95;;
62933;SDS011;49038;47.600;19.242;2024-01-16T00:32:14;1.20;;;1.17;;
62933;SDS011;49038;47.600;19.242;2024-01-16T00:35:18;2.15;;;2.00;;
62933;SDS011;49038;47.600;19.242;2024-01-16T00:38:20;2.10;;;2.00;;
62933;SDS011;49038;47.600;19.242;2024-01-16T00:41:24;1.80;;;1.70;;
62933;SDS011;49038;47.600;19.242;2024-01-16T00:44:26;1.58;;;1.48;;
62933;SDS011;49038;47.600;19.242;2024-01-16T00:47:28;1.48;;;1.30;;
62933;SDS011;49038;47.600;19.242;2024-01-16T00:50:30;1.60;;;1.50;;
62933;SDS011;49038;47.600;19.242;2024-01-16T00:53:33;1.85;;;1.73;;
62933;SDS011;49038;47.600;19.242;2024-01-16T00:56:35;1.25;;;1.20;;
62933;SDS011;49038;47.600;19.242;2024-01-16T00:59:38;1.37;;;1.27;;
62933;SDS011;49038;47.600;19.242;2024-01-16T01:02:40;1.92;;;1.83;;
62933;SDS011;49038;47.600;19.242;2024-01-16T01:05:42;1.60;;;1.50;;
62933;SDS011;49038;47.600;19.242;2024-01-16T01:08:45;1.75;;;1.60;;
62933;SDS011;49038;47.600;19.242;2024-01-16T01:11:47;1.90;;;1.80;;
62933;SDS011;49038;47.600;19.242;2024-01-16T01:14:50;1.90;;;1.80;;
62933;SDS011;49038;47.600;19.242;2024-01-16T01:17:52;8.25;;;1.77;;
62933;SDS011;49038;47.600;19.242;2024-01-16T01:20:56;1.33;;;1.23;;
62933;SDS011;49038;47.600;19.242;2024-01-16T01:23:58;1.92;;;1.83;;
62933;SDS011;49038;47.600;19.242;2024-01-16T01:27:00;2.10;;;1.67;;
62933;SDS011;49038;47.600;19.242;2024-01-16T01:30:03;3.42;;;1.95;;
62933;SDS011;49038;47.600;19.242;2024-01-16T01:33:05;1.58;;;1.48;;
62933;SDS011;49038;47.600;19.242;2024-01-16T01:36:08;1.15;;;1.00;;
62933;SDS011;49038;47.600;19.242;2024-01-16T01:39:10;1.87;;;1.77;;
62933;SDS011;49038;47.600;19.242;2024-01-16T01:42:14;2.75;;;1.50;;
62933;SDS011;49038;47.600;19.242;2024-01-16T01:45:17;1.23;;;1.23;;
62933;SDS011;49038;47.600;19.242;2024-01-16T01:48:19;2.22;;;1.80;;
62933;SDS011;49038;47.600;19.242;2024-01-16T01:51:21;1.42;;;1.35;;
62933;SDS011;49038;47.600;19.242;2024-01-16T01:54:24;1.67;;;1.25;;
62933;SDS011;49038;47.600;19.242;2024-01-16T01:57:26;1.50;;;1.40;;
62933;SDS011;49038;47.600;19.242;2024-01-16T02:00:29;1.23;;;1.15;;
62933;SDS011;49038;47.600;19.242;2024-01-16T02:03:35;1.85;;;1.73;;
62933;SDS011;49038;47.600;19.242;2024-01-16T02:06:42;1.27;;;1.27;;
62933;SDS011;49038;47.600;19.242;2024-01-16T02:09:46;2.10;;;1.70;;
62933;SDS011;49038;47.600;19.242;2024-01-16T02:12:49;1.70;;;1.60;;
62933;SDS011;49038;47.600;19.242;2024-01-16T02:15:51;1.33;;;1.30;;
62933;SDS011;49038;47.600;19.242;2024-01-16T02:18:53;1.73;;;1.62;;
62933;SDS011;49038;47.600;19.242;2024-01-16T02:21:58;1.73;;;1.62;;
62933;SDS011;49038;47.600;19.242;2024-01-16T02:25:01;1.80;;;1.70;;
62933;SDS011;49038;47.600;19.242;2024-01-16T02:28:03;1.73;;;1.62;;
62933;SDS011;49038;47.600;19.242;2024-01-16T02:31:07;2.83;;;1.75;;
62933;SDS011;49038;47.600;19.242;2024-01-16T02:34:09;1.77;;;1.67;;
62933;SDS011;49038;47.600;19.242;2024-01-16T02:37:11;1.30;;;1.30;;
62933;SDS011;49038;47.600;19.242;2024-01-16T02:40:14;1.95;;;1.35;;
62933;SDS011;49038;47.600;19.242;2024-01-16T02:43:17;1.02;;;1.02;;
62933;SDS011;49038;47.600;19.242;2024-01-16T02:46:19;1.27;;;1.25;;
62933;SDS011;49038;47.600;19.242;2024-01-16T02:49:21;1.30;;;1.20;;
62933;SDS011;49038;47.600;19.242;2024-01-16T02:52:23;1.35;;;1.25;;
62933;SDS011;49038;47.600;19.242;2024-01-16T02:55:25;2.20;;;2.00;;
62933;SDS011;49038;47.600;19.242;2024-01-16T02:58:28;2.65;;;1.80;;
62933;SDS011;49038;47.600;19.242;2024-01-16T03:01:31;2.00;;;1.90;;
62933;SDS011;49038;47.600;19.242;2024-01-16T03:04:33;1.70;;;1.60;;
62933;SDS011;49038;47.600;19.242;2024-01-16T03:07:36;1.50;;;1.40;;
62933;SDS011;49038;47.600;19.242;2024-01-16T03:10:38;1.55;;;1.45;;
62933;SDS011;49038;47.600;19.242;2024-01-16T03:13:40;2.42;;;1.83;;
62933;SDS011;49038;47.600;19.242;2024-01-16T03:16:43;1.20;;;1.20;;
62933;SDS011;49038;47.600;19.242;2024-01-16T03:19:46;1.33;;;1.25;;
62933;SDS011;49038;47.600;19.242;2024-01-16T03:22:48;1.90;;;1.80;;
62933;SDS011;49038;47.600;19.242;2024-01-16T03:25:51;2.35;;;1.42;;
62933;SDS011;49038;47.600;19.242;2024-01-16T03:28:53;1.48;;;1.42;;
62933;SDS011;49038;47.600;19.242;2024-01-16T03:31:56;1.48;;;1.37;;
62933;SDS011;49038;47.600;19.242;2024-01-16T03:34:58;2.25;;;2.05;;
62933;SDS011;49038;47.600;19.242;2024-01-16T03:38:00;1.90;;;1.77;;
62933;SDS011;49038;47.600;19.242;2024-01-16T03:41:03;1.80;;;1.70;;
62933;SDS011;49038;47.600;19.242;2024-01-16T03:44:05;1.60;;;1.50;;
62933;SDS011;49038;47.600;19.242;2024-01-16T03:47:08;1.37;;;1.30;;
62933;SDS011;49038;47.600;19.242;2024-01-16T03:50:10;2.05;;;1.87;;
62933;SDS011;49038;47.600;19.242;2024-01-16T03:53:12;2.17;;;1.95;;
62933;SDS011;49038;47.600;19.242;2024-01-16T03:56:15;1.40;;;1.30;;
62933;SDS011;49038;47.600;19.242;2024-01-16T03:59:18;1.73;;;1.62;;
62933;SDS011;49038;47.600;19.242;2024-01-16T04:02:20;1.62;;;1.52;;
62933;SDS011;49038;47.600;19.242;2024-01-16T04:05:22;1.50;;;1.40;;
62933;SDS011;49038;47.600;19.242;2024-01-16T04:08:24;1.65;;;1.55;;
62933;SDS011;49038;47.600;19.242;2024-01-16T04:11:27;1.75;;;1.58;;
62933;SDS011;49038;47.600;19.242;2024-01-16T04:14:29;1.90;;;1.73;;
62933;SDS011;49038;47.600;19.242;2024-01-16T04:17:31;2.53;;;1.98;;
62933;SDS011;49038;47.600;19.242;2024-01-16T04:20:34;1.17;;;1.17;;
62933;SDS011;49038;47.600;19.242;2024-01-16T04:23:36;1.23;;;1.12;;
62933;SDS011;49038;47.600;19.242;2024-01-16T04:26:39;1.77;;;1.67;;
62933;SDS011;49038;47.600;19.242;2024-01-16T04:29:41;1.45;;;1.35;;
62933;SDS011;49038;47.600;19.242;2024-01-16T04:32:43;1.40;;;1.30;;
62933;SDS011;49038;47.600;19.242;2024-01-16T04:35:46;1.50;;;1.40;;
62933;SDS011;49038;47.600;19.242;2024-01-16T04:38:48;2.65;;;2.20;;
62933;SDS011;49038;47.600;19.242;2024-01-16T04:41:51;1.37;;;1.27;;
62933;SDS011;49038;47.600;19.242;2024-01-16T04:44:53;7.80;;;2.28;;
62933;SDS011;49038;47.600;19.242;2024-01-16T04:47:56;1.55;;;1.45;;
62933;SDS011;49038;47.600;19.242;2024-01-16T04:50:58;2.12;;;1.98;;
62933;SDS011;49038;47.600;19.242;2024-01-16T04:54:01;1.73;;;1.30;;
62933;SDS011;49038;47.600;19.242;2024-01-16T04:57:03;1.70;;;1.60;;
62933;SDS011;49038;47.600;19.242;2024-01-16T05:00:06;1.70;;;1.58;;
62933;SDS011;49038;47.600;19.242;2024-01-16T05:03:09;2.47;;;2.25;;
62933;SDS011;49038;47.600;19.242;2024-01-16T05:06:12;1.67;;;1.58;;
62933;SDS011;49038;47.600;19.242;2024-01-16T05:09:15;2.08;;;1.48;;
62933;SDS011;49038;47.600;19.242;2024-01-16T05:12:17;1.50;;;1.40;;
62933;SDS011;49038;47.600;19.242;2024-01-16T05:15:20;1.58;;;1.52;;
62933;SDS011;49038;47.600;19.242;2024-01-16T05:18:22;2.03;;;1.40;;
62933;SDS011;49038;47.600;19.242;2024-01-16T05:21:24;1.33;;;1.23;;
62933;SDS011;49038;47.600;19.242;2024-01-16T05:24:26;1.87;;;1.77;;
62933;SDS011;49038;47.600;19.242;2024-01-16T05:27:29;1.42;;;1.33;;
62933;SDS011;49038;47.600;19.242;2024-01-16T05:30:31;1.35;;;1.33;;
62933;SDS011;49038;47.600;19.242;2024-01-16T05:33:34;1.50;;;1.40;;
62933;SDS011;49038;47.600;19.242;2024-01-16T05:36:36;1.80;;;1.48;;
62933;SDS011;49038;47.600;19.242;2024-01-16T05:39:39;1.60;;;1.50;;
62933;SDS011;49038;47.600;19.242;2024-01-16T05:42:41;2.47;;;2.10;;
62933;SDS011;49038;47.600;19.242;2024-01-16T05:45:43;1.60;;;1.50;;
62933;SDS011;49038;47.600;19.242;2024-01-16T05:48:45;1.70;;;1.60;;
62933;SDS011;49038;47.600;19.242;2024-01-16T05:51:48;1.10;;;1.10;;
62933;SDS011;49038;47.600;19.242;2024-01-16T05:54:50;2.05;;;1.85;;
62933;SDS011;49038;47.600;19.242;2024-01-16T05:57:52;1.65;;;1.55;;
62933;SDS011;49038;47.600;19.242;2024-01-16T06:00:54;2.22;;;1.70;;
62933;SDS011;49038;47.600;19.242;2024-01-16T06:03:58;2.28;;;2.08;;
62933;SDS011;49038;47.600;19.242;2024-01-16T06:07:01;1.50;;;1.50;;
62933;SDS011;49038;47.600;19.242;2024-01-16T06:10:04;4.18;;;1.67;;
62933;SDS011;49038;47.600;19.242;2024-01-16T06:13:07;2.15;;;2.05;;
62933;SDS011;49038;47.600;19.242;2024-01-16T06:16:09;1.87;;;1.77;;
62933;SDS011;49038;47.600;19.242;2024-01-16T06:19:12;2.47;;;1.67;;
62933;SDS011;49038;47.600;19.242;2024-01-16T06:22:14;3.87;;;2.55;;
62933;SDS011;49038;47.600;19.242;2024-01-16T06:25:16;2.00;;;1.70;;
62933;SDS011;49038;47.600;19.242;2024-01-16T06:28:18;1.52;;;1.42;;
62933;SDS011;49038;47.600;19.242;2024-01-16T06:31:20;1.70;;;1.60;;
62933;SDS011;49038;47.600;19.242;2024-01-16T06:34:23;1.85;;;1.75;;
62933;SDS011;49038;47.600;19.242;2024-01-16T06:37:25;1.67;;;1.58;;
62933;SDS011;49038;47.600;19.242;2024-01-16T06:40:27;2.00;;;1.75;;
62933;SDS011;49038;47.600;19.242;2024-01-16T06:43:30;1.45;;;1.30;;
62933;SDS011;49038;47.600;19.242;2024-01-16T06:46:32;2.25;;;2.05;;
62933;SDS011;49038;47.600;19.242;2024-01-16T06:49:34;1.73;;;1.62;;
62933;SDS011;49038;47.600;19.242;2024-01-16T06:52:36;1.92;;;1.83;;
62933;SDS011;49038;47.600;19.242;2024-01-16T06:55:39;1.58;;;1.50;;
62933;SDS011;49038;47.600;19.242;2024-01-16T06:58:41;1.45;;;1.35;;
62933;SDS011;49038;47.600;19.242;2024-01-16T07:01:43;2.53;;;2.33;;
62933;SDS011;49038;47.600;19.242;2024-01-16T07:04:46;2.37;;;2.05;;
62933;SDS011;49038;47.600;19.242;2024-01-16T07:07:48;1.70;;;1.60;;
62933;SDS011;49038;47.600;19.242;2024-01-16T07:10:50;2.50;;;2.30;;
62933;SDS011;49038;47.600;19.242;2024-01-16T07:13:52;1.52;;;1.42;;
62933;SDS011;49038;47.600;19.242;2024-01-16T07:16:55;1.48;;;1.37;;
62933;SDS011;49038;47.600;19.242;2024-01-16T07:19:57;2.08;;;1.98;;
62933;SDS011;49038;47.600;19.242;2024-01-16T07:23:00;1.85;;;1.70;;
62933;SDS011;49038;47.600;19.242;2024-01-16T07:26:03;1.27;;;1.23;;
62933;SDS011;49038;47.600;19.242;2024-01-16T07:29:06;1.12;;;1.10;;
62933;SDS011;49038;47.600;19.242;2024-01-16T07:32:08;2.60;;;1.95;;
62933;SDS011;49038;47.600;19.242;2024-01-16T07:35:13;1.30;;;1.30;;
62933;SDS011;49038;47.600;19.242;2024-01-16T07:38:15;1.62;;;1.52;;
62933;SDS011;49038;47.600;19.242;2024-01-16T07:41:17;1.75;;;1.65;;
62933;SDS011;49038;47.600;19.242;2024-01-16T07:44:19;1.62;;;1.52;;
62933;SDS011;49038;47.600;19.242;2024-01-16T07:47:22;1.30;;;1.30;;
62933;SDS011;49038;47.600;19.242;2024-01-16T07:50:24;5.10;;;1.87;;
62933;SDS011;49038;47.600;19.242;2024-01-16T07:53:27;1.67;;;1.58;;
62933;SDS011;49038;47.600;19.242;2024-01-16T07:56:29;1.73;;;1.62;;
62933;SDS011;49038;47.600;19.242;2024-01-16T07:59:32;1.48;;;1.37;;
62933;SDS011;49038;47.600;19.242;2024-01-16T08:02:34;1.87;;;1.70;;
62933;SDS011;49038;47.600;19.242;2024-01-16T08:05:38;1.10;;;1.10;;
62933;SDS011;49038;47.600;19.242;2024-01-16T08:08:40;2.03;;;1.92;;
62933;SDS011;49038;47.600;19.242;2024-01-16T08:11:43;1.35;;;1.25;;
62933;SDS011;49038;47.600;19.242;2024-01-16T08:14:45;4.72;;;1.35;;
62933;SDS011;49038;47.600;19.242;2024-01-16T08:17:48;2.08;;;1.67;;
62933;SDS011;49038;47.600;19.242;2024-01-16T08:20:50;7.07;;;1.87;;
62933;SDS011;49038;47.600;19.242;2024-01-16T08:23:52;1.58;;;1.48;;
62933;SDS011;49038;47.600;19.242;2024-01-16T08:26:55;1.48;;;1.27;;
62933;SDS011;49038;47.600;19.242;2024-01-16T08:29:59;2.08;;;1.95;;
62933;SDS011;49038;47.600;19.242;2024-01-16T08:33:01;1.60;;;1.50;;
62933;SDS011;49038;47.600;19.242;2024-01-16T08:36:04;1.30;;;1.20;;
62933;SDS011;49038;47.600;19.242;2024-01-16T08:39:06;4.12;;;2.62;;
62933;SDS011;49038;47.600;19.242;2024-01-16T08:42:09;4.95;;;2.87;;
62933;SDS011;49038;47.600;19.242;2024-01-16T08:45:13;1.45;;;1.37;;
62933;SDS011;49038;47.600;19.242;2024-01-16T08:48:16;1.50;;;1.40;;
62933;SDS011;49038;47.600;19.242;2024-01-16T08:51:18;1.62;;;1.52;;
62933;SDS011;49038;47.600;19.242;2024-01-16T08:54:20;1.40;;;1.33;;
62933;SDS011;49038;47.600;19.242;2024-01-16T08:57:24;1.50;;;1.40;;
62933;SDS011;49038;47.600;19.242;2024-01-16T09:00:30;1.45;;;1.37;;
62933;SDS011;49038;47.600;19.242;2024-01-16T09:03:32;1.98;;;1.80;;
62933;SDS011;49038;47.600;19.242;2024-01-16T09:06:35;8.40;;;2.97;;
62933;SDS011;49038;47.600;19.242;2024-01-16T09:09:38;16.60;;;7.43;;
62933;SDS011;49038;47.600;19.242;2024-01-16T09:12:40;34.58;;;15.27;;
62933;SDS011;49038;47.600;19.242;2024-01-16T09:15:42;28.35;;;14.70;;
62933;SDS011;49038;47.600;19.242;2024-01-16T09:18:44;10.35;;;5.72;;
62933;SDS011;49038;47.600;19.242;2024-01-16T09:21:47;7.95;;;3.92;;
62933;SDS011;49038;47.600;19.242;2024-01-16T09:24:49;3.92;;;3.08;;
62933;SDS011;49038;47.600;19.242;2024-01-16T09:27:52;2.72;;;2.37;;
62933;SDS011;49038;47.600;19.242;2024-01-16T09:30:55;3.87;;;3.03;;
62933;SDS011;49038;47.600;19.242;2024-01-16T09:33:58;6.43;;;4.03;;
62933;SDS011;49038;47.600;19.242;2024-01-16T09:37:00;2.05;;;1.87;;
62933;SDS011;49038;47.600;19.242;2024-01-16T09:40:05;2.40;;;2.10;;
62933;SDS011;49038;47.600;19.242;2024-01-16T09:43:08;2.12;;;1.77;;
62933;SDS011;49038;47.600;19.242;2024-01-16T09:46:11;1.95;;;1.85;;
62933;SDS011;49038;47.600;19.242;2024-01-16T09:49:14;1.58;;;1.48;;
62933;SDS011;49038;47.600;19.242;2024-01-16T09:52:17;7.43;;;1.90;;
62933;SDS011;49038;47.600;19.242;2024-01-16T09:55:19;2.37;;;1.67;;
62933;SDS011;49038;47.600;19.242;2024-01-16T09:58:23;1.33;;;1.23;;
62933;SDS011;49038;47.600;19.242;2024-01-16T10:01:27;1.80;;;1.70;;
62933;SDS011;49038;47.600;19.242;2024-01-16T10:04:30;3.12;;;2.15;;
62933;SDS011;49038;47.600;19.242;2024-01-16T10:07:32;2.00;;;1.90;;
62933;SDS011;49038;47.600;19.242;2024-01-16T10:10:35;2.00;;;1.50;;
62933;SDS011;49038;47.600;19.242;2024-01-16T10:13:50;1.60;;;1.50;;
62933;SDS011;49038;47.600;19.242;2024-01-16T10:19:59;1.87;;;1.77;;
62933;SDS011;49038;47.600;19.242;2024-01-16T10:23:06;19.02;;;8.48;;
62933;SDS011;49038;47.600;19.242;2024-01-16T10:26:09;55.53;;;16.55;;
62933;SDS011;49038;47.600;19.242;2024-01-16T10:29:12;26.15;;;11.65;;
62933;SDS011;49038;47.600;19.242;2024-01-16T10:32:14;23.70;;;6.15;;
62933;SDS011;49038;47.600;19.242;2024-01-16T10:35:29;6.70;;;3.35;;
62933;SDS011;49038;47.600;19.242;2024-01-16T10:38:31;5.10;;;3.40;;
62933;SDS011;49038;47.600;19.242;2024-01-16T10:41:34;4.60;;;2.65;;
62933;SDS011;49038;47.600;19.242;2024-01-16T10:44:52;3.20;;;2.05;;
62933;SDS011;49038;47.600;19.242;2024-01-16T10:48:04;1.55;;;1.45;;
62933;SDS011;49038;47.600;19.242;2024-01-16T10:51:15;2.85;;;1.42;;
62933;SDS011;49038;47.600;19.242;2024-01-16T10:54:17;7.53;;;2.17;;
62933;SDS011;49038;47.600;19.242;2024-01-16T10:57:19;2.60;;;1.50;;
62933;SDS011;49038;47.600;19.242;2024-01-16T11:00:23;1.40;;;1.30;;
62933;SDS011;49038;47.600;19.242;2024-01-16T11:07:06;1.37;;;1.27;;
62933;SDS011;49038;47.600;19.242;2024-01-16T11:10:09;1.40;;;1.30;;
62933;SDS011;49038;47.600;19.242;2024-01-16T11:13:12;1.48;;;1.20;;
62933;SDS011;49038;47.600;19.242;2024-01-16T11:16:15;1.60;;;1.50;;
62933;SDS011;49038;47.600;19.242;2024-01-16T11:19:17;1.50;;;1.30;;
62933;SDS011;49038;47.600;19.242;2024-01-16T11:22:41;1.60;;;1.50;;
62933;SDS011;49038;47.600;19.242;2024-01-16T11:25:45;1.10;;;1.10;;
62933;SDS011;49038;47.600;19.242;2024-01-16T11:28:47;2.53;;;2.33;;
62933;SDS011;49038;47.600;19.242;2024-01-16T11:31:50;2.42;;;2.22;;
62933;SDS011;49038;47.600;19.242;2024-01-16T11:34:57;1.45;;;1.40;;
62933;SDS011;49038;47.600;19.242;2024-01-16T11:38:03;1.77;;;1.67;;
62933;SDS011;49038;47.600;19.242;2024-01-16T11:41:07;2.50;;;2.12;;
62933;SDS011;49038;47.600;19.242;2024-01-16T11:44:12;1.30;;;1.20;;
62933;SDS011;49038;47.600;19.242;2024-01-16T11:51:24;1.60;;;1.50;;
62933;SDS011;49038;47.600;19.242;2024-01-16T11:54:27;2.42;;;1.83;;
62933;SDS011;49038;47.600;19.242;2024-01-16T11:57:36;4.37;;;2.00;;
62933;SDS011;49038;47.600;19.242;2024-01-16T12:00:49;1.35;;;1.30;;
62933;SDS011;49038;47.600;19.242;2024-01-16T12:04:07;1.48;;;1.37;;
62933;SDS011;49038;47.600;19.242;2024-01-16T12:07:11;6.85;;;1.58;;
62933;SDS011;49038;47.600;19.242;2024-01-16T12:10:18;4.47;;;2.03;;
62933;SDS011;49038;47.600;19.242;2024-01-16T12:13:20;1.33;;;1.23;;
62933;SDS011;49038;47.600;19.242;2024-01-16T12:16:23;1.85;;;1.30;;
62933;SDS011;49038;47.600;19.242;2024-01-16T12:19:27;1.60;;;1.48;;
62933;SDS011;49038;47.600;19.242;2024-01-16T12:22:29;1.60;;;1.50;;
62933;SDS011;49038;47.600;19.242;2024-01-16T12:25:33;1.87;;;1.40;;
62933;SDS011;49038;47.600;19.242;2024-01-16T12:28:56;1.40;;;1.30;;
62933;SDS011;49038;47.600;19.242;2024-01-16T12:32:08;1.40;;;1.30;;
62933;SDS011;49038;47.600;19.242;2024-01-16T12:35:11;9.82;;;1.87;;
62933;SDS011;49038;47.600;19.242;2024-01-16T12:38:13;1.27;;;1.27;;
62933;SDS011;49038;47.600;19.242;2024-01-16T12:41:16;1.27;;;1.15;;
62933;SDS011;49038;47.600;19.242;2024-01-16T12:44:26;1.20;;;1.10;;
62933;SDS011;49038;47.600;19.242;2024-01-16T12:47:31;1.00;;;1.00;;
62933;SDS011;49038;47.600;19.242;2024-01-16T12:50:34;2.45;;;1.90;;
62933;SDS011;49038;47.600;19.242;2024-01-16T12:53:36;1.55;;;1.45;;
62933;SDS011;49038;47.600;19.242;2024-01-16T12:56:42;6.75;;;2.97;;
62933;SDS011;49038;47.600;19.242;2024-01-16T12:59:44;6.05;;;3.47;;
62933;SDS011;49038;47.600;19.242;2024-01-16T13:02:49;14.55;;;4.60;;
62933;SDS011;49038;47.600;19.242;2024-01-16T13:05:55;46.33;;;10.88;;
62933;SDS011;49038;47.600;19.242;2024-01-16T13:09:06;2.10;;;1.55;;
62933;SDS011;49038;47.600;19.242;2024-01-16T13:12:19;30.45;;;10.57;;
62933;SDS011;49038;47.600;19.242;2024-01-16T13:15:22;30.05;;;10.90;;
62933;SDS011;49038;47.600;19.242;2024-01-16T13:18:26;18.33;;;7.20;;
62933;SDS011;49038;47.600;19.242;2024-01-16T13:21:29;22.83;;;8.38;;
62933;SDS011;49038;47.600;19.242;2024-01-16T13:24:32;16.20;;;8.75;;
62933;SDS011;49038;47.600;19.242;2024-01-16T13:27:34;17.30;;;6.20;;
62933;SDS011;49038;47.600;19.242;2024-01-16T13:30:36;1.90;;;1.80;;
62933;SDS011;49038;47.600;19.242;2024-01-16T13:36:50;2.35;;;2.15;;
62933;SDS011;49038;47.600;19.242;2024-01-16T13:40:13;6.12;;;3.12;;
62933;SDS011;49038;47.600;19.242;2024-01-16T13:43:21;2.45;;;1.87;;
62933;SDS011;49038;47.600;19.242;2024-01-16T13:46:24;3.75;;;2.25;;
62933;SDS011;49038;47.600;19.242;2024-01-16T13:49:46;6.80;;;3.87;;
62933;SDS011;49038;47.600;19.242;2024-01-16T13:52:49;4.45;;;3.15;;
62933;SDS011;49038;47.600;19.242;2024-01-16T13:55:51;3.17;;;2.40;;
62933;SDS011;49038;47.600;19.242;2024-01-16T13:58:54;5.80;;;3.60;;
62933;SDS011;49038;47.600;19.242;2024-01-16T14:01:56;7.65;;;3.20;;
62933;SDS011;49038;47.600;19.242;2024-01-16T14:04:59;4.80;;;3.25;;
62933;SDS011;49038;47.600;19.242;2024-01-16T14:08:01;6.25;;;3.22;;
62933;SDS011;49038;47.600;19.242;2024-01-16T14:11:04;10.40;;;3.15;;
62933;SDS011;49038;47.600;19.242;2024-01-16T14:14:06;6.55;;;3.20;;
62933;SDS011;49038;47.600;19.242;2024-01-16T14:17:08;9.18;;;4.18;;
62933;SDS011;49038;47.600;19.242;2024-01-16T14:20:12;14.18;;;6.07;;
62933;SDS011;49038;47.600;19.242;2024-01-16T14:23:14;9.27;;;4.18;;
62933;SDS011;49038;47.600;19.242;2024-01-16T14:26:16;15.00;;;4.80;;
62933;SDS011;49038;47.600;19.242;2024-01-16T14:29:19;4.90;;;3.47;;
62933;SDS011;49038;47.600;19.242;2024-01-16T14:32:22;3.62;;;2.10;;
62933;SDS011;49038;47.600;19.242;2024-01-16T14:35:24;4.68;;;2.05;;
62933;SDS011;49038;47.600;19.242;2024-01-16T14:38:27;4.57;;;2.80;;
62933;SDS011;49038;47.600;19.242;2024-01-16T14:41:29;2.08;;;1.83;;
62933;SDS011;49038;47.600;19.242;2024-01-16T14:44:33;6.75;;;4.60;;
62933;SDS011;49038;47.600;19.242;2024-01-16T14:47:36;6.22;;;3.53;;
62933;SDS011;49038;47.600;19.242;2024-01-16T14:50:38;8.80;;;3.87;;
62933;SDS011;49038;47.600;19.242;2024-01-16T14:53:41;9.95;;;3.20;;
62933;SDS011;49038;47.600;19.242;2024-01-16T14:56:43;9.25;;;5.28;;
62933;SDS011;49038;47.600;19.242;2024-01-16T14:59:45;3.12;;;2.72;;
62933;SDS011;49038;47.600;19.242;2024-01-16T15:02:51;7.55;;;3.30;;
62933;SDS011;49038;47.600;19.242;2024-01-16T15:05:53;8.30;;;3.80;;
62933;SDS011;49038;47.600;19.242;2024-01-16T15:08:57;8.23;;;2.87;;
62933;SDS011;49038;47.600;19.242;2024-01-16T15:12:00;6.00;;;3.83;;
62933;SDS011;49038;47.600;19.242;2024-01-16T15:15:06;6.05;;;3.25;;
62933;SDS011;49038;47.600;19.242;2024-01-16T15:18:09;16.58;;;5.60;;
62933;SDS011;49038;47.600;19.242;2024-01-16T15:21:12;22.90;;;7.40;;
62933;SDS011;49038;47.600;19.242;2024-01-16T15:24:14;8.05;;;3.90;;
62933;SDS011;49038;47.600;19.242;2024-01-16T15:27:27;3.75;;;3.05;;
62933;SDS011;49038;47.600;19.242;2024-01-16T15:30:30;7.12;;;4.78;;
62933;SDS011;49038;47.600;19.242;2024-01-16T15:33:37;13.70;;;4.37;;
62933;SDS011;49038;47.600;19.242;2024-01-16T15:36:40;7.43;;;5.22;;
62933;SDS011;49038;47.600;19.242;2024-01-16T15:39:43;15.65;;;4.95;;
62933;SDS011;49038;47.600;19.242;2024-01-16T15:42:46;10.80;;;5.75;;
62933;SDS011;49038;47.600;19.242;2024-01-16T15:45:48;47.03;;;16.48;;
62933;SDS011;49038;47.600;19.242;2024-01-16T15:48:52;36.25;;;16.10;;
62933;SDS011;49038;47.600;19.242;2024-01-16T15:51:58;18.90;;;7.68;;
62933;SDS011;49038;47.600;19.242;2024-01-16T15:55:04;19.30;;;8.80;;
62933;SDS011;49038;47.600;19.242;2024-01-16T15:58:06;14.98;;;6.95;;
62933;SDS011;49038;47.600;19.242;2024-01-16T16:01:08;14.27;;;7.20;;
62933;SDS011;49038;47.600;19.242;2024-01-16T16:04:11;29.85;;;16.98;;
62933;SDS011;49038;47.600;19.242;2024-01-16T16:07:13;21.85;;;11.30;;
62933;SDS011;49038;47.600;19.242;2024-01-16T16:10:15;39.55;;;19.62;;
62933;SDS011;49038;47.600;19.242;2024-01-16T16:13:18;34.63;;;14.80;;
62933;SDS011;49038;47.600;19.242;2024-01-16T16:16:20;26.23;;;14.35;;
62933;SDS011;49038;47.600;19.242;2024-01-16T16:19:22;29.52;;;10.02;;
62933;SDS011;49038;47.600;19.242;2024-01-16T16:22:24;62.58;;;32.08;;
62933;SDS011;49038;47.600;19.242;2024-01-16T16:25:27;70.45;;;28.25;;
62933;SDS011;49038;47.600;19.242;2024-01-16T16:28:29;34.15;;;17.35;;
62933;SDS011;49038;47.600;19.242;2024-01-16T16:31:31;28.30;;;15.07;;
62933;SDS011;49038;47.600;19.242;2024-01-16T16:34:34;32.88;;;15.45;;
62933;SDS011;49038;47.600;19.242;2024-01-16T16:37:37;17.48;;;11.68;;
62933;SDS011;49038;47.600;19.242;2024-01-16T16:40:39;22.13;;;11.27;;
62933;SDS011;49038;47.600;19.242;2024-01-16T16:43:42;22.50;;;11.55;;
62933;SDS011;49038;47.600;19.242;2024-01-16T16:46:44;37.38;;;17.40;;
62933;SDS011;49038;47.600;19.242;2024-01-16T16:49:46;35.83;;;14.73;;
62933;SDS011;49038;47.600;19.242;2024-01-16T16:52:49;19.42;;;9.38;;
62933;SDS011;49038;47.600;19.242;2024-01-16T16:55:51;13.85;;;7.80;;
62933;SDS011;49038;47.600;19.242;2024-01-16T16:58:54;26.10;;;8.00;;
62933;SDS011;49038;47.600;19.242;2024-01-16T17:01:56;21.83;;;9.93;;
62933;SDS011;49038;47.600;19.242;2024-01-16T17:04:58;27.20;;;15.73;;
62933;SDS011;49038;47.600;19.242;2024-01-16T17:08:01;27.27;;;17.87;;
62933;SDS011;49038;47.600;19.242;2024-01-16T17:11:03;54.35;;;24.17;;
62933;SDS011;49038;47.600;19.242;2024-01-16T17:14:06;48.83;;;27.02;;
62933;SDS011;49038;47.600;19.242;2024-01-16T17:17:09;55.53;;;24.58;;
62933;SDS011;49038;47.600;19.242;2024-01-16T17:20:12;38.95;;;18.83;;
62933;SDS011;49038;47.600;19.242;2024-01-16T17:23:15;60.78;;;28.75;;
62933;SDS011;49038;47.600;19.242;2024-01-16T17:26:17;41.20;;;21.33;;
62933;SDS011;49038;47.600;19.242;2024-01-16T17:29:20;23.60;;;12.13;;
62933;SDS011;49038;47.600;19.242;2024-01-16T17:32:23;23.77;;;15.68;;
62933;SDS011;49038;47.600;19.242;2024-01-16T17:35:26;30.23;;;14.95;;
62933;SDS011;49038;47.600;19.242;2024-01-16T17:38:28;14.23;;;7.37;;
62933;SDS011;49038;47.600;19.242;2024-01-16T17:41:30;14.38;;;10.05;;
62933;SDS011;49038;47.600;19.242;2024-01-16T17:44:33;8.63;;;6.32;;
62933;SDS011;49038;47.600;19.242;2024-01-16T17:47:40;12.90;;;6.82;;
62933;SDS011;49038;47.600;19.242;2024-01-16T17:50:46;22.33;;;9.30;;
62933;SDS011;49038;47.600;19.242;2024-01-16T17:53:48;19.40;;;9.20;;
62933;SDS011;49038;47.600;19.242;2024-01-16T17:56:51;25.05;;;15.02;;
62933;SDS011;49038;47.600;19.242;2024-01-16T17:59:54;42.55;;;28.55;;
62933;SDS011;49038;47.600;19.242;2024-01-16T18:02:56;23.55;;;16.80;;
62933;SDS011;49038;47.600;19.242;2024-01-16T18:06:00;28.92;;;17.73;;
62933;SDS011;49038;47.600;19.242;2024-01-16T18:09:07;20.15;;;11.82;;
62933;SDS011;49038;47.600;19.242;2024-01-16T18:12:12;24.42;;;12.35;;
62933;SDS011;49038;47.600;19.242;2024-01-16T18:15:14;19.52;;;11.73;;
62933;SDS011;49038;47.600;19.242;2024-01-16T18:18:16;22.02;;;12.37;;